createdAt,value
2023-04-16T00:00:55.006Z,22.70
2023-04-16T00:03:47.285Z,25.80
2023-04-16T00:06:39.455Z,23.80
2023-04-16T00:09:31.383Z,27.50
2023-04-16T00:12:23.365Z,30.20
2023-04-16T00:15:15.638Z,27.10
2023-04-16T00:18:07.774Z,28.60
2023-04-16T00:20:59.824Z,31.20
2023-04-16T00:23:51.775Z,28.20
2023-04-16T00:26:45.032Z,34.00
2023-04-16T00:29:37.176Z,33.90
2023-04-16T00:32:29.251Z,33.20
2023-04-16T00:35:11.175Z,33.20
2023-04-16T00:37:52.037Z,34.90
2023-04-16T00:40:44.000Z,30.50
2023-04-16T00:43:35.955Z,30.20
2023-04-16T00:46:20.068Z,31.10
2023-04-16T00:52:03.582Z,29.50
2023-04-16T00:54:57.012Z,33.10
2023-04-16T00:57:49.040Z,32.90
2023-04-16T01:00:41.584Z,30.50
2023-04-16T01:03:38.833Z,31.50
2023-04-16T01:06:32.114Z,30.40
2023-04-16T01:09:24.048Z,30.00
2023-04-16T01:12:16.049Z,29.50
2023-04-16T01:15:11.242Z,31.20
2023-04-16T01:18:03.348Z,31.30
2023-04-16T01:20:55.410Z,30.30
2023-04-16T01:23:56.071Z,33.80
2023-04-16T01:26:47.989Z,30.00
2023-04-16T01:29:39.961Z,26.70
2023-04-16T01:32:34.289Z,25.90
2023-04-16T01:38:16.624Z,25.60
2023-04-16T01:41:08.629Z,26.00
2023-04-16T01:44:00.646Z,27.20
2023-04-16T01:46:52.728Z,29.60
2023-04-16T01:49:45.680Z,28.20
2023-04-16T01:52:37.760Z,35.10
2023-04-16T01:55:29.838Z,30.00
2023-04-16T01:58:21.939Z,29.90
2023-04-16T02:01:05.825Z,28.70
2023-04-16T02:03:58.539Z,28.90
2023-04-16T02:06:50.854Z,25.50
2023-04-16T02:09:43.525Z,28.30
2023-04-16T02:12:35.444Z,26.90
2023-04-16T02:15:27.504Z,30.00
2023-04-16T02:18:19.913Z,25.20
2023-04-16T02:21:08.439Z,26.30
2023-04-16T02:24:00.447Z,27.60
2023-04-16T02:26:34.886Z,30.20
2023-04-16T02:29:26.835Z,29.00
2023-04-16T02:32:19.160Z,30.20
2023-04-16T02:35:11.761Z,32.00
2023-04-16T02:37:46.436Z,30.20
2023-04-16T02:40:38.631Z,30.40
2023-04-16T02:43:30.592Z,31.50
2023-04-16T02:46:22.601Z,31.10
2023-04-16T02:49:14.695Z,26.10
2023-04-16T02:52:07.084Z,30.30
2023-04-16T02:54:59.093Z,29.70
2023-04-16T02:57:52.810Z,30.10
2023-04-16T03:00:44.767Z,28.30
2023-04-16T03:03:36.866Z,27.10
2023-04-16T03:06:28.885Z,30.10
2023-04-16T03:09:20.855Z,25.90
2023-04-16T03:12:12.802Z,27.60
2023-04-16T03:15:05.364Z,29.80
2023-04-16T03:17:57.563Z,29.60
2023-04-16T03:20:31.966Z,32.00
2023-04-16T03:23:23.977Z,31.50
2023-04-16T03:26:15.922Z,32.10
2023-04-16T03:29:08.294Z,31.30
2023-04-16T03:32:00.469Z,31.50
2023-04-16T03:34:52.496Z,38.60
2023-04-16T03:37:26.449Z,31.10
2023-04-16T03:40:18.433Z,29.00
2023-04-16T03:43:10.469Z,33.60
2023-04-16T03:46:02.558Z,31.50
2023-04-16T03:48:39.645Z,35.40
2023-04-16T03:51:31.980Z,36.60
2023-04-16T03:54:23.956Z,38.10
2023-04-16T03:57:15.953Z,39.40
2023-04-16T04:00:10.032Z,35.20
2023-04-16T04:03:02.224Z,37.00
2023-04-16T04:05:40.277Z,45.00
2023-04-16T04:08:32.319Z,42.00
2023-04-16T04:11:24.296Z,44.90
2023-04-16T04:14:16.306Z,44.70
2023-04-16T04:17:08.312Z,47.40
2023-04-16T04:20:01.720Z,42.80
2023-04-16T04:22:54.111Z,49.30
2023-04-16T04:25:46.833Z,40.00
2023-04-16T04:28:38.845Z,44.70
2023-04-16T04:31:30.949Z,39.70
2023-04-16T04:34:22.976Z,42.10
2023-04-16T04:37:14.914Z,33.70
2023-04-16T04:39:52.039Z,38.80
2023-04-16T04:42:43.897Z,41.70
2023-04-16T04:45:35.932Z,46.40
2023-04-16T04:48:28.247Z,43.20
2023-04-16T04:51:20.280Z,40.10
2023-04-16T04:54:12.298Z,40.90
2023-04-16T04:56:54.061Z,39.00
2023-04-16T04:59:46.129Z,38.80
2023-04-16T05:02:38.551Z,38.00
2023-04-16T05:05:30.648Z,39.40
2023-04-16T05:08:22.636Z,34.00
2023-04-16T05:11:14.653Z,35.80
2023-04-16T05:14:06.852Z,36.70
2023-04-16T05:16:59.013Z,43.40
2023-04-16T05:19:51.003Z,44.90
2023-04-16T05:22:43.022Z,50.60
2023-04-16T05:25:34.992Z,51.00
2023-04-16T05:28:27.011Z,53.30
2023-04-16T05:31:19.117Z,49.00
2023-04-16T05:34:11.244Z,56.60
2023-04-16T05:37:03.184Z,57.50
2023-04-16T05:39:55.150Z,55.80
2023-04-16T05:42:29.778Z,54.70
2023-04-16T05:45:21.930Z,46.20
2023-04-16T05:48:13.920Z,37.40
2023-04-16T05:51:06.347Z,40.30
2023-04-16T05:53:58.356Z,37.00
2023-04-16T05:56:50.339Z,37.00
2023-04-16T05:59:42.302Z,34.30
2023-04-16T06:02:34.731Z,36.70
2023-04-16T06:05:27.025Z,35.20
2023-04-16T06:08:10.270Z,34.00
2023-04-16T06:11:02.379Z,33.30
2023-04-16T06:13:54.358Z,30.30
2023-04-16T06:16:46.505Z,29.50
2023-04-16T06:19:38.478Z,26.80
2023-04-16T06:22:30.604Z,22.70
2023-04-16T06:25:22.618Z,22.90
2023-04-16T06:28:14.581Z,18.40
2023-04-16T06:31:06.898Z,18.60
2023-04-16T06:33:59.092Z,20.70
2023-04-16T06:36:42.079Z,19.80
2023-04-16T06:39:34.099Z,18.10
2023-04-16T06:42:26.049Z,18.10
2023-04-16T06:45:18.212Z,20.20
2023-04-16T06:48:10.300Z,19.20
2023-04-16T06:51:02.828Z,20.20
2023-04-16T06:53:54.676Z,19.30
2023-04-16T06:56:46.793Z,22.40
2023-04-16T06:59:38.836Z,21.70
2023-04-16T07:02:31.042Z,20.50
2023-04-16T07:05:23.316Z,18.90
2023-04-16T07:08:15.449Z,18.50
2023-04-16T07:11:07.862Z,19.40
2023-04-16T07:14:00.094Z,21.20
2023-04-16T07:16:52.118Z,23.80
2023-04-16T07:19:32.757Z,20.00
2023-04-16T07:22:08.060Z,16.10
2023-04-16T07:25:00.397Z,12.30
2023-04-16T07:27:52.394Z,15.10
2023-04-16T07:30:34.003Z,14.90
2023-04-16T07:33:27.273Z,15.20
2023-04-16T07:36:19.283Z,13.10
2023-04-16T07:39:13.118Z,14.50
2023-04-16T07:41:50.491Z,15.30
2023-04-16T07:44:42.417Z,13.90
2023-04-16T07:47:34.520Z,13.20
2023-04-16T07:50:16.338Z,12.30
2023-04-16T07:52:48.743Z,12.30
2023-04-16T07:55:23.516Z,11.90
2023-04-16T07:58:15.632Z,11.90
2023-04-16T08:01:07.925Z,12.80
2023-04-16T08:04:00.219Z,12.50
2023-04-16T08:06:52.582Z,11.90
2023-04-16T08:09:52.078Z,16.60
2023-04-16T08:12:44.421Z,14.60
2023-04-16T08:15:36.877Z,15.10
2023-04-16T08:18:29.172Z,22.40
2023-04-16T08:21:21.194Z,21.20
2023-04-16T08:24:13.411Z,23.30
2023-04-16T08:26:48.132Z,20.60
2023-04-16T08:29:40.187Z,20.20
2023-04-16T08:32:14.649Z,20.10
2023-04-16T08:35:07.267Z,14.80
2023-04-16T08:38:02.192Z,17.10
2023-04-16T08:40:56.032Z,16.50
2023-04-16T08:43:49.983Z,13.20
2023-04-16T08:46:44.686Z,12.70
2023-04-16T08:49:44.323Z,11.30
2023-04-16T08:52:20.829Z,11.00
2023-04-16T08:55:15.381Z,11.70
2023-04-16T08:57:55.153Z,9.60
2023-04-16T09:00:47.394Z,9.10
2023-04-16T09:03:29.224Z,7.90
2023-04-16T09:06:21.371Z,9.10
2023-04-16T09:09:14.083Z,9.10
2023-04-16T09:12:09.208Z,9.60
2023-04-16T09:15:03.321Z,9.90
2023-04-16T09:17:40.623Z,9.20
2023-04-16T09:20:32.783Z,8.50
2023-04-16T09:23:26.007Z,8.30
2023-04-16T09:26:18.621Z,7.50
2023-04-16T09:29:10.809Z,6.90
2023-04-16T09:32:06.347Z,6.20
2023-04-16T09:35:00.654Z,6.70
2023-04-16T09:37:59.226Z,7.30
2023-04-16T09:41:09.421Z,7.00
2023-04-16T09:44:04.170Z,6.90
2023-04-16T09:46:56.254Z,7.80
2023-04-16T09:49:48.415Z,7.10
2023-04-16T09:52:40.856Z,9.40
2023-04-16T09:55:33.719Z,14.80
2023-04-16T09:58:26.063Z,11.30
2023-04-16T10:01:20.690Z,12.30
2023-04-16T10:04:12.851Z,26.70
2023-04-16T10:07:08.603Z,8.50
2023-04-16T10:10:01.253Z,7.50
2023-04-16T10:12:55.095Z,6.90
2023-04-16T10:15:47.672Z,5.50
2023-04-16T10:18:41.459Z,5.50
2023-04-16T10:21:22.636Z,36.40
2023-04-16T10:24:16.697Z,23.70
2023-04-16T10:27:08.756Z,8.00
2023-04-16T10:30:01.422Z,5.40
2023-04-16T10:32:54.357Z,13.30
2023-04-16T10:35:29.394Z,16.80
2023-04-16T10:38:29.216Z,17.70
2023-04-16T10:41:22.623Z,5.70
2023-04-16T10:44:14.622Z,6.00
2023-04-16T10:47:02.909Z,5.90
2023-04-16T10:49:55.383Z,4.10
2023-04-16T10:52:48.248Z,4.00
2023-04-16T10:55:42.322Z,6.10
2023-04-16T11:01:33.141Z,10.30
2023-04-16T11:04:34.918Z,6.30
2023-04-16T11:07:36.165Z,5.80
2023-04-16T11:10:28.162Z,16.10
2023-04-16T11:13:20.987Z,6.90
2023-04-16T11:16:14.133Z,16.00
2023-04-16T11:19:06.167Z,5.50
2023-04-16T11:21:59.311Z,13.10
2023-04-16T11:24:57.042Z,8.40
2023-04-16T11:27:49.064Z,21.10
2023-04-16T11:30:42.503Z,6.60
2023-04-16T11:33:34.502Z,6.50
2023-04-16T11:36:09.469Z,16.70
2023-04-16T11:39:05.347Z,6.00
2023-04-16T11:41:57.360Z,5.40
2023-04-16T11:44:52.366Z,17.60
2023-04-16T11:47:51.732Z,5.30
2023-04-16T11:50:44.059Z,55.70
2023-04-16T11:53:37.502Z,15.60
2023-04-16T11:56:30.645Z,6.40
2023-04-16T11:59:24.002Z,5.70
2023-04-16T12:02:16.121Z,6.20
2023-04-16T12:05:32.209Z,6.40
2023-04-16T12:08:32.524Z,9.30
2023-04-16T12:11:44.542Z,6.40
2023-04-16T12:14:36.652Z,6.00
2023-04-16T12:17:28.929Z,13.90
2023-04-16T12:20:20.995Z,6.90
2023-04-16T12:23:23.249Z,6.50
2023-04-16T12:26:15.581Z,7.80
2023-04-16T12:29:23.602Z,5.90
2023-04-16T12:32:24.956Z,5.70
2023-04-16T12:35:37.555Z,5.10
2023-04-16T12:38:29.596Z,5.10
2023-04-16T12:41:21.913Z,5.70
2023-04-16T12:44:17.939Z,5.60
2023-04-16T12:47:06.213Z,5.70
2023-04-16T12:49:58.745Z,5.60
2023-04-16T12:52:39.790Z,6.00
2023-04-16T12:55:31.760Z,9.50
2023-04-16T12:58:23.793Z,6.20
2023-04-16T13:01:15.837Z,6.50
2023-04-16T13:04:07.991Z,6.30
2023-04-16T13:07:00.469Z,5.90
2023-04-16T13:09:52.464Z,10.20
2023-04-16T13:12:46.445Z,7.00
2023-04-16T13:15:27.034Z,6.90
2023-04-16T13:18:19.016Z,10.60
2023-04-16T13:21:12.070Z,8.40
2023-04-16T13:24:04.162Z,5.80
2023-04-16T13:26:56.798Z,5.70
2023-04-16T13:29:48.777Z,6.20
2023-04-16T13:32:41.211Z,5.40
2023-04-16T13:35:33.302Z,5.40
2023-04-16T13:38:25.294Z,6.30
2023-04-16T13:41:17.241Z,6.90
2023-04-16T13:44:09.307Z,7.60
2023-04-16T13:46:47.647Z,5.70
2023-04-16T13:49:39.855Z,5.80
2023-04-16T13:52:31.832Z,5.90
2023-04-16T13:55:23.818Z,6.50
2023-04-16T13:58:16.301Z,5.80
2023-04-16T14:01:08.358Z,5.70
2023-04-16T14:04:01.885Z,5.90
2023-04-16T14:06:53.953Z,5.40
2023-04-16T14:09:45.950Z,5.70
2023-04-16T14:12:38.107Z,7.00
2023-04-16T14:15:30.195Z,5.60
2023-04-16T14:18:11.198Z,5.90
2023-04-16T14:21:03.168Z,5.30
2023-04-16T14:23:55.287Z,5.10
2023-04-16T14:26:27.144Z,5.60
2023-04-16T14:29:19.129Z,6.30
2023-04-16T14:32:11.325Z,5.30
2023-04-16T14:34:59.718Z,5.10
2023-04-16T14:37:51.744Z,5.60
2023-04-16T14:40:43.728Z,5.00
2023-04-16T14:43:35.924Z,5.30
2023-04-16T14:46:28.017Z,4.80
2023-04-16T14:49:20.088Z,5.50
2023-04-16T14:52:12.457Z,5.60
2023-04-16T14:55:05.486Z,5.30
2023-04-16T14:57:58.082Z,6.10
2023-04-16T15:00:50.122Z,5.90
2023-04-16T15:03:43.169Z,6.50
2023-04-16T15:06:36.520Z,6.50
2023-04-16T15:09:29.100Z,7.30
2023-04-16T15:12:21.060Z,6.00
2023-04-16T15:15:13.702Z,5.50
2023-04-16T15:18:06.351Z,5.00
2023-04-16T15:20:58.432Z,5.50
2023-04-16T15:23:50.447Z,6.30
2023-04-16T15:26:32.546Z,6.20
2023-04-16T15:29:24.549Z,5.40
2023-04-16T15:32:16.571Z,6.00
2023-04-16T15:35:11.345Z,6.20
2023-04-16T15:38:03.558Z,6.00
2023-04-16T15:40:55.797Z,5.70
2023-04-16T15:43:47.842Z,5.70
2023-04-16T15:46:39.899Z,6.90
2023-04-16T15:49:31.967Z,6.00
2023-04-16T15:52:23.969Z,6.00
2023-04-16T15:55:16.958Z,5.00
2023-04-16T15:58:08.979Z,5.50
2023-04-16T16:01:01.076Z,6.20
2023-04-16T16:03:53.162Z,5.20
2023-04-16T16:06:45.306Z,5.30
2023-04-16T16:09:38.094Z,5.80
2023-04-16T16:12:30.362Z,5.60
2023-04-16T16:15:12.719Z,6.10
2023-04-16T16:18:05.159Z,5.70
2023-04-16T16:21:00.237Z,5.90
2023-04-16T16:23:52.247Z,6.00
2023-04-16T16:26:44.238Z,5.50
2023-04-16T16:29:36.307Z,5.60
2023-04-16T16:32:28.387Z,5.40
2023-04-16T16:35:20.724Z,5.60
2023-04-16T16:38:09.673Z,5.80
2023-04-16T16:41:01.681Z,6.20
2023-04-16T16:43:56.171Z,5.30
2023-04-16T16:46:48.507Z,6.10
2023-04-16T16:49:40.542Z,6.20
2023-04-16T16:52:33.444Z,6.40
2023-04-16T16:55:26.180Z,7.40
2023-04-16T16:58:18.354Z,7.20
2023-04-16T17:01:12.944Z,7.00
2023-04-16T17:04:05.300Z,7.40
2023-04-16T17:06:57.460Z,7.90
2023-04-16T17:09:49.483Z,8.70
2023-04-16T17:12:41.588Z,9.00
2023-04-16T17:15:34.409Z,9.60
2023-04-16T17:18:26.609Z,9.10
2023-04-16T17:21:18.595Z,10.60
2023-04-16T17:24:10.848Z,11.10
2023-04-16T17:27:03.210Z,11.20
2023-04-16T17:29:52.873Z,10.90
2023-04-16T17:32:27.961Z,10.10
2023-04-16T17:35:20.058Z,12.30
2023-04-16T17:38:12.075Z,9.90
2023-04-16T17:41:04.050Z,13.70
2023-04-16T17:43:56.062Z,15.90
2023-04-16T17:46:48.002Z,12.30
2023-04-16T17:49:39.966Z,13.90
2023-04-16T17:52:32.103Z,18.60
2023-04-16T17:55:24.429Z,21.50
2023-04-16T17:58:16.432Z,20.50
2023-04-16T18:01:08.764Z,23.50
2023-04-16T18:04:01.094Z,16.40
2023-04-16T18:06:53.202Z,17.40
2023-04-16T18:09:45.312Z,18.50
2023-04-16T18:12:37.447Z,17.60
2023-04-16T18:15:29.625Z,17.70
2023-04-16T18:18:21.638Z,17.00
2023-04-16T18:21:13.792Z,24.30
2023-04-16T18:24:06.688Z,19.30
2023-04-16T18:26:58.714Z,20.40
2023-04-16T18:29:51.446Z,16.20
2023-04-16T18:33:04.202Z,16.10
2023-04-16T18:35:55.511Z,17.40
2023-04-16T18:39:00.065Z,19.80
2023-04-16T18:41:52.827Z,15.70
2023-04-16T18:44:44.877Z,21.10
2023-04-16T18:47:36.955Z,21.50
2023-04-16T18:50:29.038Z,19.10
2023-04-16T18:53:21.241Z,18.30
2023-04-16T18:56:13.436Z,17.50
2023-04-16T18:59:05.468Z,18.70
2023-04-16T19:01:57.687Z,17.10
2023-04-16T19:04:49.854Z,18.70
2023-04-16T19:07:41.896Z,17.50
2023-04-16T19:10:16.618Z,18.20
2023-04-16T19:13:08.730Z,15.00
2023-04-16T19:16:02.283Z,17.10
2023-04-16T19:18:54.463Z,15.70
2023-04-16T19:21:46.418Z,16.00
2023-04-16T19:24:38.548Z,17.40
2023-04-16T19:27:15.716Z,17.20
2023-04-16T19:30:10.378Z,16.20
2023-04-16T19:33:02.407Z,17.10
2023-04-16T19:35:54.472Z,17.10
2023-04-16T19:38:46.611Z,20.30
2023-04-16T19:41:38.703Z,23.90
2023-04-16T19:44:32.392Z,33.50
2023-04-16T19:47:15.483Z,24.10
2023-04-16T19:49:52.711Z,24.60
2023-04-16T19:52:44.795Z,21.80
2023-04-16T19:55:36.900Z,25.30
2023-04-16T19:58:28.908Z,26.60
2023-04-16T20:01:20.988Z,31.60
2023-04-16T20:04:13.312Z,28.20
2023-04-16T20:07:05.478Z,29.20
2023-04-16T20:09:57.511Z,29.00
2023-04-16T20:12:50.766Z,29.60
2023-04-16T20:15:42.824Z,27.80
2023-04-16T20:18:41.362Z,30.40
2023-04-16T20:21:33.572Z,30.00
2023-04-16T20:24:26.582Z,31.60
2023-04-16T20:27:19.422Z,33.30
2023-04-16T20:30:13.193Z,31.60
2023-04-16T20:33:07.733Z,33.60
2023-04-16T20:35:59.956Z,31.40
2023-04-16T20:38:53.828Z,31.40
2023-04-16T20:41:46.848Z,31.40
2023-04-16T20:44:41.242Z,31.80
2023-04-16T20:47:34.742Z,33.60
2023-04-16T20:50:27.082Z,38.90
2023-04-16T20:53:20.157Z,38.10
2023-04-16T20:56:14.695Z,36.20
2023-04-16T20:59:06.662Z,36.60
2023-04-16T21:01:58.734Z,36.10
2023-04-16T21:04:51.071Z,34.90
2023-04-16T21:07:43.501Z,34.30
2023-04-16T21:10:35.616Z,32.90
2023-04-16T21:13:27.622Z,32.80
2023-04-16T21:16:19.744Z,31.10
2023-04-16T21:19:12.018Z,29.00
2023-04-16T21:22:04.380Z,31.60
2023-04-16T21:24:56.335Z,31.10
2023-04-16T21:27:51.193Z,32.00
2023-04-16T21:30:33.268Z,32.20
2023-04-16T21:33:25.239Z,30.60
2023-04-16T21:36:17.901Z,29.50
2023-04-16T21:39:11.048Z,29.60
2023-04-16T21:42:03.310Z,31.70
2023-04-16T21:44:55.332Z,29.40
2023-04-16T21:47:47.295Z,28.60
2023-04-16T21:50:39.477Z,30.50
2023-04-16T21:53:15.747Z,30.60
2023-04-16T21:56:08.637Z,25.30
2023-04-16T21:59:00.781Z,25.90
2023-04-16T22:01:52.895Z,23.50
2023-04-16T22:04:45.015Z,25.90
2023-04-16T22:07:37.711Z,24.00
2023-04-16T22:10:29.803Z,20.80
2023-04-16T22:13:22.840Z,20.80
2023-04-16T22:16:15.602Z,20.60
2023-04-16T22:19:07.708Z,22.00
2023-04-16T22:21:45.373Z,20.20
2023-04-16T22:24:37.322Z,19.10
2023-04-16T22:27:29.332Z,21.70
2023-04-16T22:30:21.591Z,17.30
2023-04-16T22:33:13.655Z,18.30
2023-04-16T22:36:06.243Z,19.70
2023-04-16T22:38:58.296Z,16.90
2023-04-16T22:41:32.814Z,19.30
2023-04-16T22:44:24.787Z,19.50
2023-04-16T22:47:16.736Z,19.40
2023-04-16T22:50:10.981Z,15.90
2023-04-16T22:53:03.029Z,16.00
2023-04-16T22:55:55.077Z,16.80
2023-04-16T22:58:48.924Z,15.10
2023-04-16T23:01:42.159Z,15.60
2023-04-16T23:04:34.367Z,16.70
2023-04-16T23:07:26.565Z,14.10
2023-04-16T23:10:18.770Z,15.40
2023-04-16T23:13:10.798Z,13.40
2023-04-16T23:16:02.867Z,15.50
2023-04-16T23:18:55.123Z,13.80
2023-04-16T23:21:47.119Z,12.20
2023-04-16T23:24:39.050Z,16.10
2023-04-16T23:27:32.449Z,16.70
2023-04-16T23:30:24.480Z,19.10
2023-04-16T23:33:16.499Z,15.30
2023-04-16T23:36:10.039Z,14.70
2023-04-16T23:39:02.010Z,16.60
2023-04-16T23:41:54.090Z,15.10
2023-04-16T23:44:46.155Z,14.30
2023-04-16T23:47:38.502Z,16.10
2023-04-16T23:50:30.596Z,14.10
2023-04-16T23:53:22.597Z,14.20
2023-04-16T23:56:15.417Z,16.50
2023-04-16T23:59:08.679Z,14.30
